Terminal Aerodrome Forecast
Issued by NWS Lake Charles, LA

Home | Current Version | Previous Version | Text Only | Print | Product List | Glossary On
Versions: 1 2 3 4 5 6 7 8 9 10 11 12 13 14 15 16
000
FTUS44 KLCH 040520
TAFLFT
TAF
KLFT 040520Z 0406/0506 20004KT P6SM SCT015 BKN050
     FM041300 23006KT P6SM VCSH SCT015 BKN040
     FM042100 20005KT 6SM -RA VCTS SCT028CB BKN040 OVC180
     FM050200 17003KT P6SM SCT027 BKN200=

USA.gov is the U.S. government's official web portal to all federal, state and local government web resources and services.